• Join FlightAware (Why Join?)
  • Login
  • US Flag 
04:24AM EDT


 

Airport Tracker/Info


-or-


 

Live Flight TrackerFlight Track Log ✈ FLG3613 ✈ 03-Aug-2013 ✈ KMSP - KICT

Flight Track Log - Related Links

Times and Time Zones

All times are in EDT time to prevent confusion due to time zone crossing. See the FLG3613 flight status page for this flight to view local times or setup timezone preferences in your user account.

Time Position Orientation Groundspeed Altitude Reporting Facility
EDT Latitude Longitude Course Direction KTS MPH feet Rate Location/Type
12:48PM 44.8833 -93.2833 235° Southwest 183 211 2,600  Level Minneapolis TRACON
12:49PM 44.8444 -93.3892 243° Southwest 248 285 5,400 2,040 Climbing Minneapolis Center
12:50PM 44.7872 -93.4336 209° Southwest 273 314 7,700 2,460 Climbing Minneapolis Center
12:51PM 44.7256 -93.5322 229° Southwest 286 329 10,600 1,980 Climbing Minneapolis Center
12:52PM 44.6783 -93.6300 236° Southwest 305 351 11,900 1,620 Climbing Minneapolis Center
12:53PM 44.5869 -93.8261 235° Southwest  Level FlightAware Approximate
12:53PM 44.6214 -93.7311 232° Southwest 329 379 14,000  Level Minneapolis Center
12:54PM 44.5308 -93.7858 203° Southwest 358 412 15,200 1,140 Climbing Minneapolis Center
12:55PM 44.4344 -93.8422 203° Southwest 377 434 16,400 1,200 Climbing Minneapolis Center
12:56PM 44.3181 -93.9128 203° Southwest 382 440 17,800 1,200 Climbing Minneapolis Center
12:57PM 44.2217 -93.9714 204° Southwest 380 437 18,900 900 Climbing Minneapolis Center
12:58PM 44.1194 -94.0303 202° Southwest 391 450 19,700 780 Climbing Minneapolis Center
12:59PM 44.0158 -94.0917 192° South 404 465 20,600 900 Climbing Minneapolis Center
01:00PM 44.0084 -94.0641 192° South  Level FlightAware Approximate
01:00PM 43.9114 -94.1511 202° Southwest 406 467 21,600  Level Minneapolis Center
01:02PM 43.8086 -94.2114 203° Southwest 404 465 22,600 1,020 Climbing Minneapolis Center
01:03PM 43.6908 -94.2786 202° Southwest 398 458 23,800 1,020 Climbing Minneapolis Center
01:04PM 43.5922 -94.3361 203° Southwest 390 449 24,800 840 Climbing Minneapolis Center
01:06PM 43.3961 -94.4483 203° Southwest 381 438 26,500 780 Climbing Minneapolis Center
01:07PM 43.2789 -94.5153 203° Southwest 381 438 27,300 660 Climbing Minneapolis Center
01:08PM 43.1803 -94.5725 203° Southwest 384 442 27,900 480 Climbing Minneapolis Center
01:09PM 43.0800 -94.6267 202° Southwest 386 444 28,400 480 Climbing Minneapolis Center
01:10PM 42.9792 -94.6839 203° Southwest 391 450 28,900 480 Climbing Minneapolis Center
01:11PM 42.8761 -94.7411 202° Southwest 398 458 29,400 480 Climbing Minneapolis Center
01:12PM 42.7739 -94.7983 202° Southwest 398 458 29,900 240 Climbing Minneapolis Center
01:13PM 42.6586 -94.8644 203° Southwest 404 465 30,000  Climbing Minneapolis Center
01:14PM 42.5511 -94.9253 203° Southwest 416 479 30,000  Level Minneapolis Center
01:15PM 42.4403 -94.9872 202° Southwest 428 493 30,000  Level Minneapolis Center
01:16PM 42.3294 -95.0475 202° Southwest 429 494 30,000  Level Minneapolis Center
01:17PM 42.1972 -95.1203 202° Southwest 428 493 30,000  Level Minneapolis Center
01:18PM 42.0847 -95.1783 201° Southwest 429 494 30,000  Level Minneapolis Center
01:19PM 41.9642 -95.2453 202° Southwest 430 495 30,000  Level Minneapolis Center
01:20PM 41.8631 -95.3003 202° Southwest 431 496 30,000  Level Minneapolis Center
01:21PM 41.7511 -95.3606 202° Southwest 432 497 30,000  Level Minneapolis Center
01:22PM 41.6406 -95.4208 202° Southwest 428 493 30,000  Level Minneapolis Center
01:23PM 41.5064 -95.4914 201° Southwest 429 494 30,000  Level Minneapolis Center
01:24PM 41.3953 -95.5497 201° Southwest 426 490 30,000  Level Minneapolis Center
01:25PM 41.2825 -95.6089 202° Southwest 429 494 30,000  Level Minneapolis Center
01:26PM 41.1708 -95.6706 203° Southwest 424 488 30,000  Level Minneapolis Center
01:27PM 41.0617 -95.7269 201° Southwest 423 487 30,000  Level Minneapolis Center
01:28PM 40.9522 -95.7842 202° Southwest 422 486 30,000  Level Minneapolis Center
01:30PM 40.8228 -95.8525 202° Southwest 419 482 30,000  Level Minneapolis Center
01:31PM 40.7156 -95.9081 201° Southwest 415 478 30,000  Level Minneapolis Center
01:32PM 40.5861 -95.9756 202° Southwest 415 478 30,000  Level Minneapolis Center
01:33PM 40.4792 -96.0308 201° Southwest 414 476 30,000  Level Minneapolis Center
01:34PM 40.3717 -96.0875 202° Southwest 414 476 30,000  Level Minneapolis Center
01:35PM 40.2631 -96.1431 201° Southwest 416 479 30,000  Level Minneapolis Center
01:36PM 40.1539 -96.1972 201° Southwest 417 480 30,000  Level Minneapolis Center
01:37PM 40.0464 -96.2547 202° Southwest 418 481 30,000  Level Minneapolis Center
01:38PM 39.9158 -96.3214 201° Southwest 418 481 30,000  Level Minneapolis Center
01:39PM 39.8078 -96.3761 201° Southwest 418 481 30,000  Level Minneapolis Center
01:40PM 39.6989 -96.4297 201° Southwest 417 480 30,000  Level Minneapolis Center
01:41PM 39.5903 -96.4853 202° Southwest 418 481 30,000  Level Minneapolis Center
01:42PM 39.4819 -96.5403 201° Southwest 418 481 30,000  Level Minneapolis Center
01:43PM 39.3717 -96.5958 201° Southwest 422 486 30,000  Level Minneapolis Center
01:44PM 39.2189 -96.6711 201° Southwest 419 482 30,000  Level Minneapolis Center
01:45PM 39.1097 -96.7269 202° Southwest 421 484 30,000  Level Minneapolis Center
01:47PM 38.9856 -96.7881 201° Southwest 421 484 30,000 -240 Level Kansas City Center
01:48PM 38.8744 -96.8419 201° Southwest 424 488 29,500 -1,500 Descending Kansas City Center
01:49PM 38.7647 -96.8961 201° Southwest 423 487 27,000 -2,520 Descending Kansas City Center
01:50PM 38.6594 -96.9481 201° Southwest 408 470 24,400 -2,520 Descending Kansas City Center
01:51PM 38.5558 -96.9997 201° Southwest 400 460 21,800 -2,820 Descending Kansas City Center
01:52PM 38.4347 -97.0575 200° South 388 447 18,600 -2,760 Descending Kansas City Center
01:53PM 38.3369 -97.1053 201° Southwest 377 434 16,100 -2,580 Descending Kansas City Center
01:54PM 38.2256 -97.1581 200° South 353 406 13,000 -2,460 Descending Kansas City Center
01:55PM 38.1536 -97.1917 200° South 345 397 11,000 -1,620 Descending Kansas City Center
01:56PM 38.0728 -97.2289 200° South 309 356 9,900 -1,500 Descending Kansas City Center
01:57PM 37.9942 -97.2639 199° South 260 299 8,100 -1,680 Descending Kansas City Center
01:58PM 37.9381 -97.2914 201° Southwest 258 297 6,800 -1,440 Descending Kansas City Center
01:59PM 37.8736 -97.3200 199° South 241 277 5,400 -1,260 Descending Kansas City Center
02:00PM 37.8175 -97.3475 201° Southwest 191 220 4,300 -1,080 Descending Kansas City Center
02:01PM 37.7692 -97.3681 199° South 178 205 3,300 -840 Descending Kansas City Center
02:02PM 37.7189 -97.3919 201° Southwest 179 206 2,600 -780 Descending Kansas City Center
02:03PM 37.6789 -97.4114 201° Southwest 150 173 1,700 -480 Descending Kansas City Center
02:04PM 37.6361 -97.4311 200° South 167 192 1,500 -180 Descending Kansas City Center
02:06PM 37.6333 -97.4167 180° South  Level FlightAware Approximate